sensor_id;sensor_type;location;lat;lon;timestamp;pressure;altitude;pressure_sealevel;temperature;humidity
50652;BME280;61429;52.086;5.240;2022-12-18T00:01:00;102732.0;;;-0.9;77.16
50652;BME280;61429;52.086;5.240;2022-12-18T05:38:26;102684.99999999999;;;-3.07;74.67
50652;BME280;61429;52.086;5.240;2022-12-18T06:25:20;102622.0;;;-3.07;73.95
50652;BME280;61429;52.086;5.240;2022-12-18T06:28:33;102627.0;;;-2.98;73.72
50652;BME280;61429;52.086;5.240;2022-12-18T06:30:10;102629.0;;;-2.98;74.02
50652;BME280;61429;52.086;5.240;2022-12-18T06:31:46;102634.99999999999;;;-2.95;73.8
50652;BME280;61429;52.086;5.240;2022-12-18T06:35:03;102633.99999999999;;;-2.82;73.16
50652;BME280;61429;52.086;5.240;2022-12-18T06:36:40;102623.0;;;-2.87;73.27
50652;BME280;61429;52.086;5.240;2022-12-18T06:38:16;102619.0;;;-2.83;73.33
50652;BME280;61429;52.086;5.240;2022-12-18T06:41:28;102620.0;;;-2.9;73.22
50652;BME280;61429;52.086;5.240;2022-12-18T06:43:05;102611.99999999999;;;-3.06;73.33
50652;BME280;61429;52.086;5.240;2022-12-18T06:44:42;102613.00000000001;;;-3.02;73.66
50652;BME280;61429;52.086;5.240;2022-12-18T06:46:18;102613.00000000001;;;-2.98;73.47
50652;BME280;61429;52.086;5.240;2022-12-18T06:49:31;102602.0;;;-3.01;73.94
50652;BME280;61429;52.086;5.240;2022-12-18T06:51:08;102595.0;;;-3.1;73.98
50652;BME280;61429;52.086;5.240;2022-12-18T06:52:44;102591.00000000001;;;-3.09;73.83
50652;BME280;61429;52.086;5.240;2022-12-18T06:56:00;102590.00000000001;;;-2.97;74.08
50652;BME280;61429;52.086;5.240;2022-12-18T06:57:37;102589.00000000001;;;-2.94;73.84
50652;BME280;61429;52.086;5.240;2022-12-18T06:59:13;102584.99999999999;;;-3.1;74.11
50652;BME280;61429;52.086;5.240;2022-12-18T07:00:50;102582.0;;;-3.01;74.11
50652;BME280;61429;52.086;5.240;2022-12-18T07:04:03;102589.00000000001;;;-3.0;74.05
50652;BME280;61429;52.086;5.240;2022-12-18T07:05:39;102589.00000000001;;;-3.12;73.92
50652;BME280;61429;52.086;5.240;2022-12-18T07:07:17;102588.00000000001;;;-2.96;74.27
50652;BME280;61429;52.086;5.240;2022-12-18T07:10:31;102579.0;;;-2.76;74.06
50652;BME280;61429;52.086;5.240;2022-12-18T07:12:07;102579.0;;;-2.81;74.39
50652;BME280;61429;52.086;5.240;2022-12-18T07:13:44;102569.0;;;-2.8;74.0
50652;BME280;61429;52.086;5.240;2022-12-18T07:16:56;102572.0;;;-2.83;74.44
50652;BME280;61429;52.086;5.240;2022-12-18T07:18:33;102572.0;;;-2.83;73.94
50652;BME280;61429;52.086;5.240;2022-12-18T07:20:10;102567.0;;;-2.85;74.2
50652;BME280;61429;52.086;5.240;2022-12-18T07:21:46;102561.99999999999;;;-2.71;73.64
50652;BME280;61429;52.086;5.240;2022-12-18T07:24:58;102555.0;;;-2.7;73.72
50652;BME280;61429;52.086;5.240;2022-12-18T07:26:35;102558.0;;;-2.74;73.48
50652;BME280;61429;52.086;5.240;2022-12-18T07:28:11;102566.00000000001;;;-2.62;73.7
50652;BME280;61429;52.086;5.240;2022-12-18T07:31:24;102568.0;;;-2.62;72.77
50652;BME280;61429;52.086;5.240;2022-12-18T07:33:00;102563.00000000001;;;-2.65;72.72
50652;BME280;61429;52.086;5.240;2022-12-18T07:34:37;102555.0;;;-2.58;72.95
50652;BME280;61429;52.086;5.240;2022-12-18T07:37:50;102541.00000000001;;;-2.66;73.55
50652;BME280;61429;52.086;5.240;2022-12-18T07:39:26;102536.99999999999;;;-2.64;73.47
50652;BME280;61429;52.086;5.240;2022-12-18T07:41:04;102530.0;;;-2.71;73.33
50652;BME280;61429;52.086;5.240;2022-12-18T07:42:41;102533.0;;;-2.68;73.11
50652;BME280;61429;52.086;5.240;2022-12-18T07:45:55;102539.00000000001;;;-2.6;72.8
50652;BME280;61429;52.086;5.240;2022-12-18T07:47:34;102529.0;;;-2.66;73.34
50652;BME280;61429;52.086;5.240;2022-12-18T07:49:10;102526.0;;;-2.61;73.81
50652;BME280;61429;52.086;5.240;2022-12-18T07:52:22;102520.0;;;-2.62;73.47
50652;BME280;61429;52.086;5.240;2022-12-18T07:53:59;102522.0;;;-2.84;73.53
50652;BME280;61429;52.086;5.240;2022-12-18T07:55:35;102523.0;;;-2.71;73.77
50652;BME280;61429;52.086;5.240;2022-12-18T07:58:48;102517.0;;;-2.73;73.86
50652;BME280;61429;52.086;5.240;2022-12-18T08:00:24;102516.00000000001;;;-2.83;74.11
50652;BME280;61429;52.086;5.240;2022-12-18T08:02:00;102520.0;;;-2.71;73.8
50652;BME280;61429;52.086;5.240;2022-12-18T08:03:38;102516.00000000001;;;-2.75;74.86
50652;BME280;61429;52.086;5.240;2022-12-18T08:06:51;102508.99999999999;;;-2.58;75.02
50652;BME280;61429;52.086;5.240;2022-12-18T08:08:28;102501.0;;;-2.59;74.13
50652;BME280;61429;52.086;5.240;2022-12-18T08:10:05;102502.0;;;-2.62;73.84
50652;BME280;61429;52.086;5.240;2022-12-18T08:13:19;102506.0;;;-2.38;74.63
50652;BME280;61429;52.086;5.240;2022-12-18T08:14:54;102509.99999999999;;;-2.25;74.31
50652;BME280;61429;52.086;5.240;2022-12-18T08:16:31;102517.0;;;-2.1;73.86
50652;BME280;61429;52.086;5.240;2022-12-18T08:19:43;102519.0;;;-1.99;73.3
50652;BME280;61429;52.086;5.240;2022-12-18T08:21:21;102524.0;;;-1.92;72.92
50652;BME280;61429;52.086;5.240;2022-12-18T08:24:34;102532.0;;;-1.68;72.09
50652;BME280;61429;52.086;5.240;2022-12-18T08:27:47;102533.99999999999;;;-1.68;72.28
50652;BME280;61429;52.086;5.240;2022-12-18T08:29:24;102533.99999999999;;;-1.6;71.55
50652;BME280;61429;52.086;5.240;2022-12-18T08:31:00;102540.00000000001;;;-1.44;71.05
50652;BME280;61429;52.086;5.240;2022-12-18T08:34:11;102536.99999999999;;;-1.38;70.52
50652;BME280;61429;52.086;5.240;2022-12-18T08:35:48;102536.99999999999;;;-1.55;70.87
50652;BME280;61429;52.086;5.240;2022-12-18T08:37:24;102540.00000000001;;;-1.58;71.16
50652;BME280;61429;52.086;5.240;2022-12-18T08:40:37;102546.0;;;-1.62;70.97
50652;BME280;61429;52.086;5.240;2022-12-18T08:42:12;102540.00000000001;;;-1.45;70.58
50652;BME280;61429;52.086;5.240;2022-12-18T08:43:48;102534.99999999999;;;-1.51;70.02
50652;BME280;61429;52.086;5.240;2022-12-18T08:45:25;102528.0;;;-1.47;70.25
50652;BME280;61429;52.086;5.240;2022-12-18T08:48:37;102523.0;;;-1.49;70.47
50652;BME280;61429;52.086;5.240;2022-12-18T08:50:14;102513.00000000001;;;-1.59;70.37
50652;BME280;61429;52.086;5.240;2022-12-18T08:51:54;102517.0;;;-1.6;70.67
50652;BME280;61429;52.086;5.240;2022-12-18T08:55:08;102519.0;;;-1.49;70.83
50652;BME280;61429;52.086;5.240;2022-12-18T08:56:44;102517.0;;;-1.4;70.66
50652;BME280;61429;52.086;5.240;2022-12-18T08:58:21;102520.0;;;-1.25;70.5
50652;BME280;61429;52.086;5.240;2022-12-18T09:01:33;102515.00000000001;;;-1.28;69.88
50652;BME280;61429;52.086;5.240;2022-12-18T09:03:11;102511.99999999999;;;-1.34;70.02
50652;BME280;61429;52.086;5.240;2022-12-18T09:04:48;102508.0;;;-1.44;70.27
50652;BME280;61429;52.086;5.240;2022-12-18T09:06:24;102506.0;;;-1.52;70.55
50652;BME280;61429;52.086;5.240;2022-12-18T09:09:36;102508.0;;;-1.59;70.48
50652;BME280;61429;52.086;5.240;2022-12-18T09:11:14;102504.0;;;-1.45;70.99
50652;BME280;61429;52.086;5.240;2022-12-18T09:12:54;102519.0;;;-1.59;71.11
50652;BME280;61429;52.086;5.240;2022-12-18T09:16:06;102523.0;;;-1.46;72.03
50652;BME280;61429;52.086;5.240;2022-12-18T09:17:43;102526.0;;;-1.22;71.67
50652;BME280;61429;52.086;5.240;2022-12-18T09:19:19;102526.0;;;-1.3;71.31
50652;BME280;61429;52.086;5.240;2022-12-18T09:22:31;102517.0;;;-1.43;70.86
50652;BME280;61429;52.086;5.240;2022-12-18T09:24:11;102521.0;;;-1.36;70.87
50652;BME280;61429;52.086;5.240;2022-12-18T09:25:49;102525.0;;;-1.38;70.8
50652;BME280;61429;52.086;5.240;2022-12-18T09:27:25;102522.0;;;-1.25;70.48
50652;BME280;61429;52.086;5.240;2022-12-18T09:30:39;102525.0;;;-1.11;70.3
50652;BME280;61429;52.086;5.240;2022-12-18T09:32:16;102525.0;;;-1.07;70.36
50652;BME280;61429;52.086;5.240;2022-12-18T09:33:54;102508.99999999999;;;-1.08;70.3
50652;BME280;61429;52.086;5.240;2022-12-18T09:37:07;102502.0;;;-1.01;71.14
50652;BME280;61429;52.086;5.240;2022-12-18T09:38:44;102505.0;;;-0.95;71.2
50652;BME280;61429;52.086;5.240;2022-12-18T09:40:22;102501.0;;;-1.04;70.23
50652;BME280;61429;52.086;5.240;2022-12-18T09:42:02;102493.0;;;-1.07;70.28
50652;BME280;61429;52.086;5.240;2022-12-18T09:45:21;102490.00000000001;;;-1.07;70.39
50652;BME280;61429;52.086;5.240;2022-12-18T09:47:04;102491.00000000001;;;-1.02;70.55
50652;BME280;61429;52.086;5.240;2022-12-18T09:48:47;102490.00000000001;;;-1.0;70.22
50652;BME280;61429;52.086;5.240;2022-12-18T09:50:29;102488.00000000001;;;-0.88;69.62
50652;BME280;61429;52.086;5.240;2022-12-18T09:53:53;102495.0;;;-0.73;69.63
50652;BME280;61429;52.086;5.240;2022-12-18T09:55:35;102484.99999999999;;;-0.94;68.84
50652;BME280;61429;52.086;5.240;2022-12-18T09:57:16;102482.0;;;-0.92;69.23
50652;BME280;61429;52.086;5.240;2022-12-18T10:02:15;102481.0;;;-0.93;69.78
50652;BME280;61429;52.086;5.240;2022-12-18T10:03:53;102475.0;;;-0.95;69.27
50652;BME280;61429;52.086;5.240;2022-12-18T10:05:37;102471.0;;;-0.84;69.16
50652;BME280;61429;52.086;5.240;2022-12-18T10:07:27;102475.0;;;-0.76;69.03
50652;BME280;61429;52.086;5.240;2022-12-18T10:09:15;102467.0;;;-0.8;68.94
50652;BME280;61429;52.086;5.240;2022-12-18T10:12:52;102464.00000000001;;;-0.68;68.83
50652;BME280;61429;52.086;5.240;2022-12-18T10:14:37;102464.00000000001;;;-0.69;69.12
50652;BME280;61429;52.086;5.240;2022-12-18T10:16:19;102467.0;;;-0.49;68.22
50652;BME280;61429;52.086;5.240;2022-12-18T10:18:19;102472.0;;;-0.46;68.37
50652;BME280;61429;52.086;5.240;2022-12-18T10:20:00;102479.0;;;-0.3;67.42
50652;BME280;61429;52.086;5.240;2022-12-18T10:23:28;102479.0;;;-0.2;67.12
50652;BME280;61429;52.086;5.240;2022-12-18T10:25:17;102468.0;;;-0.33;67.37
50652;BME280;61429;52.086;5.240;2022-12-18T10:27:04;102473.0;;;-0.16;67.58
50652;BME280;61429;52.086;5.240;2022-12-18T10:28:45;102470.0;;;-0.26;67.44
50652;BME280;61429;52.086;5.240;2022-12-18T10:30:24;102471.0;;;-0.13;67.05
50652;BME280;61429;52.086;5.240;2022-12-18T10:33:38;102466.00000000001;;;-0.1;66.86
50652;BME280;61429;52.086;5.240;2022-12-18T10:35:19;102458.99999999999;;;-0.2;67.09
50652;BME280;61429;52.086;5.240;2022-12-18T10:36:56;102454.0;;;-0.12;67.42
50652;BME280;61429;52.086;5.240;2022-12-18T10:38:33;102457.0;;;-0.17;66.77
50652;BME280;61429;52.086;5.240;2022-12-18T10:41:49;102457.0;;;-0.14;67.03
50652;BME280;61429;52.086;5.240;2022-12-18T10:43:27;102448.0;;;-0.07;66.94
50652;BME280;61429;52.086;5.240;2022-12-18T10:45:10;102442.0;;;0.01;66.81
50652;BME280;61429;52.086;5.240;2022-12-18T10:46:53;102434.99999999999;;;0.05;66.61
50652;BME280;61429;52.086;5.240;2022-12-18T10:50:19;102427.0;;;0.09;66.41
50652;BME280;61429;52.086;5.240;2022-12-18T10:52:06;102425.0;;;0.13;66.33
50652;BME280;61429;52.086;5.240;2022-12-18T10:53:52;102432.0;;;-0.04;66.52
50652;BME280;61429;52.086;5.240;2022-12-18T10:55:32;102433.0;;;0.1;66.72
50652;BME280;61429;52.086;5.240;2022-12-18T10:59:09;102434.99999999999;;;0.18;66.41
50652;BME280;61429;52.086;5.240;2022-12-18T11:01:02;102427.0;;;0.29;66.36
50652;BME280;61429;52.086;5.240;2022-12-18T11:02:39;102423.0;;;0.29;66.08
50652;BME280;61429;52.086;5.240;2022-12-18T11:04:18;102415.00000000001;;;0.25;65.87
50652;BME280;61429;52.086;5.240;2022-12-18T11:06:02;102408.0;;;0.42;65.83
50652;BME280;61429;52.086;5.240;2022-12-18T11:09:25;102409.99999999999;;;0.39;65.37
50652;BME280;61429;52.086;5.240;2022-12-18T11:11:04;102409.99999999999;;;0.27;65.52
50652;BME280;61429;52.086;5.240;2022-12-18T11:12:44;102411.99999999999;;;0.22;65.91
50652;BME280;61429;52.086;5.240;2022-12-18T11:14:22;102403.0;;;0.31;65.39
50652;BME280;61429;52.086;5.240;2022-12-18T11:17:36;102392.0;;;0.31;65.77
50652;BME280;61429;52.086;5.240;2022-12-18T11:19:20;102387.0;;;0.41;65.7
50652;BME280;61429;52.086;5.240;2022-12-18T11:21:06;102387.0;;;0.37;65.64
50652;BME280;61429;52.086;5.240;2022-12-18T11:22:54;102385.0;;;0.33;65.81
50652;BME280;61429;52.086;5.240;2022-12-18T11:24:35;102384.0;;;0.39;65.8
50652;BME280;61429;52.086;5.240;2022-12-18T11:27:52;102387.0;;;0.62;65.28
50652;BME280;61429;52.086;5.240;2022-12-18T11:29:33;102388.0;;;0.58;65.12
50652;BME280;61429;52.086;5.240;2022-12-18T11:31:20;102392.0;;;0.68;64.77
50652;BME280;61429;52.086;5.240;2022-12-18T11:33:04;102387.0;;;0.54;64.31
50652;BME280;61429;52.086;5.240;2022-12-18T11:36:23;102387.0;;;0.59;64.66
50652;BME280;61429;52.086;5.240;2022-12-18T11:38:06;102388.0;;;0.63;64.34
50652;BME280;61429;52.086;5.240;2022-12-18T11:39:51;102383.0;;;0.78;64.19
50652;BME280;61429;52.086;5.240;2022-12-18T11:41:34;102391.0;;;0.88;63.81
50652;BME280;61429;52.086;5.240;2022-12-18T11:43:20;102390.0;;;0.85;63.58
50652;BME280;61429;52.086;5.240;2022-12-18T11:47:00;102388.0;;;0.87;64.02
50652;BME280;61429;52.086;5.240;2022-12-18T11:48:43;102380.0;;;0.97;63.45
50652;BME280;61429;52.086;5.240;2022-12-18T11:50:25;102375.0;;;0.89;63.34
50652;BME280;61429;52.086;5.240;2022-12-18T11:52:09;102369.0;;;0.83;63.71
50652;BME280;61429;52.086;5.240;2022-12-18T11:53:51;102368.0;;;0.95;63.49
50652;BME280;61429;52.086;5.240;2022-12-18T11:57:32;102369.0;;;0.73;63.93
50652;BME280;61429;52.086;5.240;2022-12-18T11:59:18;102355.0;;;0.72;64.1
50652;BME280;61429;52.086;5.240;2022-12-18T12:01:08;102348.0;;;0.89;64.48
50652;BME280;61429;52.086;5.240;2022-12-18T12:03:11;102344.0;;;0.86;64.35
50652;BME280;61429;52.086;5.240;2022-12-18T12:06:40;102328.0;;;0.94;64.13
50652;BME280;61429;52.086;5.240;2022-12-18T12:08:33;102316.0;;;0.88;64.1
50652;BME280;61429;52.086;5.240;2022-12-18T12:12:20;102314.0;;;0.92;63.82
50652;BME280;61429;52.086;5.240;2022-12-18T12:14:14;102313.0;;;0.89;64.1
50652;BME280;61429;52.086;5.240;2022-12-18T12:16:15;102313.0;;;1.16;63.53
50652;BME280;61429;52.086;5.240;2022-12-18T12:17:59;102308.0;;;1.16;63.4
50652;BME280;61429;52.086;5.240;2022-12-18T12:19:48;102316.0;;;1.17;63.12
50652;BME280;61429;52.086;5.240;2022-12-18T12:21:34;102306.0;;;1.19;63.0
50652;BME280;61429;52.086;5.240;2022-12-18T12:23:22;102305.0;;;1.16;63.38
50652;BME280;61429;52.086;5.240;2022-12-18T12:27:06;102307.0;;;1.34;63.09
50652;BME280;61429;52.086;5.240;2022-12-18T12:28:56;102306.0;;;1.29;63.23
50652;BME280;61429;52.086;5.240;2022-12-18T12:30:52;102301.0;;;1.26;62.96
50652;BME280;61429;52.086;5.240;2022-12-18T12:32:45;102299.0;;;1.16;63.28
50652;BME280;61429;52.086;5.240;2022-12-18T12:34:30;102297.0;;;1.19;63.22
50652;BME280;61429;52.086;5.240;2022-12-18T12:36:16;102293.0;;;1.27;62.99
50652;BME280;61429;52.086;5.240;2022-12-18T12:38:05;102296.0;;;1.36;62.9
50652;BME280;61429;52.086;5.240;2022-12-18T12:39:46;102284.0;;;1.2;62.95
50652;BME280;61429;52.086;5.240;2022-12-18T12:43:21;102283.0;;;1.23;63.12
50652;BME280;61429;52.086;5.240;2022-12-18T12:45:01;102280.0;;;1.25;63.5
50652;BME280;61429;52.086;5.240;2022-12-18T12:46:41;102271.0;;;1.21;63.1
50652;BME280;61429;52.086;5.240;2022-12-18T12:48:31;102271.0;;;1.31;63.29
50652;BME280;61429;52.086;5.240;2022-12-18T12:50:14;102275.0;;;1.37;62.79
50652;BME280;61429;52.086;5.240;2022-12-18T12:53:37;102276.0;;;1.37;62.91
50652;BME280;61429;52.086;5.240;2022-12-18T12:55:17;102266.0;;;1.3;62.93
50652;BME280;61429;52.086;5.240;2022-12-18T12:56:59;102268.0;;;1.4;62.71
50652;BME280;61429;52.086;5.240;2022-12-18T12:58:47;102264.0;;;1.34;63.02
50652;BME280;61429;52.086;5.240;2022-12-18T13:02:20;102268.0;;;1.33;63.1
50652;BME280;61429;52.086;5.240;2022-12-18T13:04:03;102266.0;;;1.6;62.33
50652;BME280;61429;52.086;5.240;2022-12-18T13:05:51;102258.0;;;1.66;62.22
50652;BME280;61429;52.086;5.240;2022-12-18T13:07:33;102260.0;;;1.59;62.2
50652;BME280;61429;52.086;5.240;2022-12-18T13:09:15;102262.0;;;1.55;62.4
50652;BME280;61429;52.086;5.240;2022-12-18T13:12:29;102262.0;;;1.37;62.48
50652;BME280;61429;52.086;5.240;2022-12-18T13:14:20;102261.0;;;1.48;62.35
50652;BME280;61429;52.086;5.240;2022-12-18T13:16:05;102259.0;;;1.53;62.51
50652;BME280;61429;52.086;5.240;2022-12-18T13:17:42;102263.0;;;1.64;62.17
50652;BME280;61429;52.086;5.240;2022-12-18T13:21:04;102261.0;;;1.64;62.18
50652;BME280;61429;52.086;5.240;2022-12-18T13:22:57;102255.0;;;1.56;61.98
50652;BME280;61429;52.086;5.240;2022-12-18T13:24:33;102255.0;;;1.52;62.43
50652;BME280;61429;52.086;5.240;2022-12-18T13:26:41;102251.0;;;1.61;62.4
50652;BME280;61429;52.086;5.240;2022-12-18T13:28:20;102247.0;;;1.6;62.47
50652;BME280;61429;52.086;5.240;2022-12-18T13:31:01;102243.0;;;1.52;62.4
50652;BME280;61429;52.086;5.240;2022-12-18T13:32:41;102236.0;;;1.46;62.49
50652;BME280;61429;52.086;5.240;2022-12-18T13:34:19;102235.0;;;1.38;62.5
50652;BME280;61429;52.086;5.240;2022-12-18T13:37:51;102239.0;;;1.38;62.75
50652;BME280;61429;52.086;5.240;2022-12-18T13:39:32;102231.0;;;1.42;62.57
50652;BME280;61429;52.086;5.240;2022-12-18T13:41:23;102222.0;;;1.39;62.53
50652;BME280;61429;52.086;5.240;2022-12-18T13:43:20;102221.0;;;1.32;62.52
50652;BME280;61429;52.086;5.240;2022-12-18T13:44:59;102215.0;;;1.22;62.82
50652;BME280;61429;52.086;5.240;2022-12-18T13:48:22;102205.0;;;1.23;63.17
50652;BME280;61429;52.086;5.240;2022-12-18T13:50:03;102202.0;;;1.13;63.21
50652;BME280;61429;52.086;5.240;2022-12-18T13:51:48;102200.0;;;1.24;62.99
50652;BME280;61429;52.086;5.240;2022-12-18T13:53:27;102202.0;;;1.12;63.2
50652;BME280;61429;52.086;5.240;2022-12-18T13:55:06;102198.0;;;1.14;63.29
50652;BME280;61429;52.086;5.240;2022-12-18T13:58:26;102196.0;;;1.16;63.38
50652;BME280;61429;52.086;5.240;2022-12-18T14:00:23;102184.0;;;1.15;63.06
50652;BME280;61429;52.086;5.240;2022-12-18T14:02:12;102185.0;;;1.17;63.13
50652;BME280;61429;52.086;5.240;2022-12-18T14:03:49;102187.0;;;1.24;63.24
50652;BME280;61429;52.086;5.240;2022-12-18T14:05:44;102177.0;;;1.16;62.9
50652;BME280;61429;52.086;5.240;2022-12-18T14:09:02;102180.0;;;1.16;63.27
50652;BME280;61429;52.086;5.240;2022-12-18T14:10:40;102180.0;;;1.3;62.91
50652;BME280;61429;52.086;5.240;2022-12-18T14:12:18;102175.0;;;1.33;62.62
50652;BME280;61429;52.086;5.240;2022-12-18T14:13:58;102177.0;;;1.43;62.37
50652;BME280;61429;52.086;5.240;2022-12-18T14:17:16;102180.0;;;1.41;62.48
50652;BME280;61429;52.086;5.240;2022-12-18T14:18:55;102172.0;;;1.44;62.34
50652;BME280;61429;52.086;5.240;2022-12-18T14:20:33;102173.0;;;1.42;62.24
50652;BME280;61429;52.086;5.240;2022-12-18T14:24:14;102180.0;;;1.15;62.58
50652;BME280;61429;52.086;5.240;2022-12-18T14:25:51;102177.0;;;1.39;62.38
50652;BME280;61429;52.086;5.240;2022-12-18T14:27:27;102168.0;;;1.45;62.42
50652;BME280;61429;52.086;5.240;2022-12-18T14:29:19;102167.0;;;1.45;62.29
50652;BME280;61429;52.086;5.240;2022-12-18T14:30:57;102165.0;;;1.6;62.09
50652;BME280;61429;52.086;5.240;2022-12-18T14:34:15;102156.0;;;1.61;62.03
50652;BME280;61429;52.086;5.240;2022-12-18T14:35:54;102152.0;;;1.61;61.75
50652;BME280;61429;52.086;5.240;2022-12-18T14:37:32;102149.0;;;1.61;61.82
50652;BME280;61429;52.086;5.240;2022-12-18T14:39:16;102146.0;;;1.64;61.91
50652;BME280;61429;52.086;5.240;2022-12-18T14:42:36;102145.0;;;1.6;61.6
50652;BME280;61429;52.086;5.240;2022-12-18T14:44:13;102140.0;;;1.5;62.1
50652;BME280;61429;52.086;5.240;2022-12-18T14:45:49;102146.0;;;1.53;61.82
50652;BME280;61429;52.086;5.240;2022-12-18T14:47:27;102145.0;;;1.56;61.82
50652;BME280;61429;52.086;5.240;2022-12-18T14:50:57;102144.0;;;1.7;61.8
50652;BME280;61429;52.086;5.240;2022-12-18T14:52:34;102143.0;;;1.54;61.87
50652;BME280;61429;52.086;5.240;2022-12-18T14:54:16;102141.0;;;1.63;61.81
50652;BME280;61429;52.086;5.240;2022-12-18T14:55:53;102141.0;;;1.63;61.63
50652;BME280;61429;52.086;5.240;2022-12-18T14:59:14;102133.0;;;1.72;61.45
50652;BME280;61429;52.086;5.240;2022-12-18T15:00:51;102138.0;;;1.67;61.49
50652;BME280;61429;52.086;5.240;2022-12-18T15:02:28;102138.0;;;1.63;61.52
50652;BME280;61429;52.086;5.240;2022-12-18T15:04:24;102131.0;;;1.49;61.81
50652;BME280;61429;52.086;5.240;2022-12-18T15:07:54;102131.0;;;1.57;61.82
50652;BME280;61429;52.086;5.240;2022-12-18T15:09:30;102127.0;;;1.42;62.15
50652;BME280;61429;52.086;5.240;2022-12-18T15:11:25;102127.0;;;1.46;62.15
50652;BME280;61429;52.086;5.240;2022-12-18T15:13:08;102125.0;;;1.53;62.2
50652;BME280;61429;52.086;5.240;2022-12-18T15:14:59;102123.0;;;1.59;61.96
50652;BME280;61429;52.086;5.240;2022-12-18T15:18:13;102117.0;;;1.51;61.82
50652;BME280;61429;52.086;5.240;2022-12-18T15:19:53;102122.0;;;1.61;62.0
50652;BME280;61429;52.086;5.240;2022-12-18T15:21:34;102124.0;;;1.64;61.73
50652;BME280;61429;52.086;5.240;2022-12-18T15:23:14;102123.0;;;1.67;61.85
50652;BME280;61429;52.086;5.240;2022-12-18T15:26:36;102115.0;;;1.55;61.98
50652;BME280;61429;52.086;5.240;2022-12-18T15:28:18;102111.0;;;1.61;61.9
50652;BME280;61429;52.086;5.240;2022-12-18T15:30:18;102114.0;;;1.48;62.01
50652;BME280;61429;52.086;5.240;2022-12-18T15:32:16;102114.0;;;1.36;61.93
50652;BME280;61429;52.086;5.240;2022-12-18T15:34:13;102111.0;;;1.45;61.93
50652;BME280;61429;52.086;5.240;2022-12-18T15:36:00;102113.0;;;1.5;62.35
50652;BME280;61429;52.086;5.240;2022-12-18T15:37:38;102121.0;;;1.43;62.27
50652;BME280;61429;52.086;5.240;2022-12-18T15:40:52;102118.0;;;1.63;61.83
50652;BME280;61429;52.086;5.240;2022-12-18T15:42:28;102112.0;;;1.56;61.72
50652;BME280;61429;52.086;5.240;2022-12-18T15:44:21;102119.0;;;1.56;61.92
50652;BME280;61429;52.086;5.240;2022-12-18T15:45:59;102107.0;;;1.41;62.02
50652;BME280;61429;52.086;5.240;2022-12-18T15:49:11;102099.0;;;1.45;62.36
50652;BME280;61429;52.086;5.240;2022-12-18T15:50:47;102094.0;;;1.35;62.55
50652;BME280;61429;52.086;5.240;2022-12-18T15:52:24;102091.0;;;1.37;62.84
50652;BME280;61429;52.086;5.240;2022-12-18T15:55:40;102090.0;;;1.24;62.76
50652;BME280;61429;52.086;5.240;2022-12-18T15:57:17;102098.0;;;1.43;62.45
50652;BME280;61429;52.086;5.240;2022-12-18T15:58:53;102091.0;;;1.56;62.12
50652;BME280;61429;52.086;5.240;2022-12-18T16:02:14;102085.0;;;1.48;62.22
50652;BME280;61429;52.086;5.240;2022-12-18T16:03:53;102081.0;;;1.52;62.21
50652;BME280;61429;52.086;5.240;2022-12-18T16:05:29;102078.0;;;1.29;62.2
50652;BME280;61429;52.086;5.240;2022-12-18T16:07:07;102081.0;;;1.5;61.97
50652;BME280;61429;52.086;5.240;2022-12-18T16:10:20;102074.0;;;1.63;61.89
50652;BME280;61429;52.086;5.240;2022-12-18T16:11:56;102067.0;;;1.45;62.04
50652;BME280;61429;52.086;5.240;2022-12-18T16:13:36;102062.0;;;1.57;62.16
50652;BME280;61429;52.086;5.240;2022-12-18T16:15:14;102064.0;;;1.44;62.25
50652;BME280;61429;52.086;5.240;2022-12-18T16:18:29;102057.0;;;1.39;62.03
50652;BME280;61429;52.086;5.240;2022-12-18T16:20:08;102057.0;;;1.34;62.25
50652;BME280;61429;52.086;5.240;2022-12-18T16:21:49;102046.0;;;1.27;62.84
50652;BME280;61429;52.086;5.240;2022-12-18T16:25:02;102038.0;;;1.17;63.03
50652;BME280;61429;52.086;5.240;2022-12-18T16:26:38;102034.0;;;1.32;62.8
50652;BME280;61429;52.086;5.240;2022-12-18T16:28:14;102044.0;;;1.29;62.65
50652;BME280;61429;52.086;5.240;2022-12-18T16:29:50;102038.0;;;1.42;62.61
50652;BME280;61429;52.086;5.240;2022-12-18T16:33:03;102031.0;;;1.34;62.62
50652;BME280;61429;52.086;5.240;2022-12-18T16:34:40;102034.0;;;1.38;62.49
50652;BME280;61429;52.086;5.240;2022-12-18T16:36:16;102031.0;;;1.48;62.26
50652;BME280;61429;52.086;5.240;2022-12-18T16:39:29;102026.0;;;1.5;62.45
50652;BME280;61429;52.086;5.240;2022-12-18T16:41:17;102025.0;;;1.51;62.16
50652;BME280;61429;52.086;5.240;2022-12-18T16:42:54;102028.0;;;1.42;62.31
50652;BME280;61429;52.086;5.240;2022-12-18T16:44:30;102035.0;;;1.41;62.61
50652;BME280;61429;52.086;5.240;2022-12-18T16:47:43;102035.0;;;1.64;62.12
50652;BME280;61429;52.086;5.240;2022-12-18T16:49:20;102024.0;;;1.7;61.92
50652;BME280;61429;52.086;5.240;2022-12-18T16:51:00;102018.0;;;1.63;61.98
50652;BME280;61429;52.086;5.240;2022-12-18T16:54:14;102017.0;;;1.67;61.99
50652;BME280;61429;52.086;5.240;2022-12-18T16:55:54;102014.0;;;1.54;62.2
50652;BME280;61429;52.086;5.240;2022-12-18T16:57:30;102017.0;;;1.6;62.25
50652;BME280;61429;52.086;5.240;2022-12-18T17:00:42;102022.0;;;1.71;61.68
50652;BME280;61429;52.086;5.240;2022-12-18T17:02:20;102020.0;;;1.74;61.93
50652;BME280;61429;52.086;5.240;2022-12-18T17:03:59;102007.0;;;1.78;61.85
50652;BME280;61429;52.086;5.240;2022-12-18T17:05:36;102006.0;;;1.71;61.85
50652;BME280;61429;52.086;5.240;2022-12-18T17:08:54;102006.0;;;1.81;61.74
50652;BME280;61429;52.086;5.240;2022-12-18T17:10:33;102011.0;;;1.77;61.76
50652;BME280;61429;52.086;5.240;2022-12-18T17:13:47;102014.0;;;1.79;61.77
50652;BME280;61429;52.086;5.240;2022-12-18T17:17:01;102014.0;;;1.65;62.08
50652;BME280;61429;52.086;5.240;2022-12-18T17:20:13;102020.0;;;1.83;61.65
50652;BME280;61429;52.086;5.240;2022-12-18T17:21:49;102013.0;;;1.82;61.76
50652;BME280;61429;52.086;5.240;2022-12-18T17:23:27;102016.0;;;1.66;61.95
50652;BME280;61429;52.086;5.240;2022-12-18T17:25:04;102011.0;;;1.82;61.8
50652;BME280;61429;52.086;5.240;2022-12-18T17:26:41;102006.0;;;1.57;61.81